CheckWX is a tool to help pilots better visualize weather data.  It is not intended as a substitute for an official pre-flight weather briefing.

13:03:01 UTC

KSIK METAR
Sikeston Memorial Municipal Airport
Sikeston, Missouri, USA
Current

28 mins ago

KSIK 191235Z AUTO 03005KT 10SM CLR 00/M02 A3050 RMK AO2
Observed
Feb-19 @ 12:35 UTC
Wind
  • 030° at 5 KTS
Visibility
10 SM
Flight Rules
VFR
Cloud Levels
  • Clear skies
Temperature
C / 32°F
Dewpoint
-2°C / 28°F
Humidity
87%
Altimeter
30.5" Hg
Pressure
1032.82 hPa
Previous

48 mins ago

KSIK 191215Z AUTO 04004KT 10SM CLR 00/M02 A3049 RMK AO2
Observed
Feb-19 @ 12:15 UTC
Wind
  • 040° at 4 KTS
Visibility
10 SM
Flight Rules
VFR
Cloud Levels
  • Clear skies
Temperature
C / 32°F
Dewpoint
-2°C / 28°F
Humidity
87%
Altimeter
30.49" Hg
Pressure
1032.52 hPa
Previous

1 hour ago

KSIK 191155Z AUTO 02004KT 10SM CLR M01/M02 A3049 RMK AO2
Observed
Feb-19 @ 11:55 UTC
Wind
  • 020° at 4 KTS
Visibility
10 SM
Flight Rules
VFR
Cloud Levels
  • Clear skies
Temperature
-1°C / 30°F
Dewpoint
-2°C / 28°F
Humidity
93%
Altimeter
30.49" Hg
Pressure
1032.52 hPa